Tyre, New York
Current Conditions -  °F | °C
As of 12:53 PM on Monday 24 Nov 2014 (Local Time) from KPEO Reporting Station
Broken Clouds Broken Clouds  
Wind Chill: 67°   Ceiling: 5500
Heat Index: 67°   Visibility: 10mi
Dew Point: 50°   Wind: 18mph
Humidity: 54%   Direction: 190°S
Pressure: 29.35"   Gusts: 41mph
Location:  42.9691°N, 76.7961°W
Report Text: KPEO 241753Z AUTO 19016G36KT 10SM SCT046 BKN055 BKN065 19/10 A2935 RMK AO2 PK WND 21036/1750 SLP937 T01940100 10200 20144 56023
Loading
Personal Weather Stations






























Interactive Weather Map New forecast layout! Learn more

10-Day Weather Forecast

Advertisements
Track Severe Weather on mobile